sensor_id;sensor_type;location;lat;lon;timestamp;P1;durP1;ratioP1;P2;durP2;ratioP2
11238;SDS011;5677;48.488;13.436;2023-04-09T00:01:59;3.03;;;2.73;;
11238;SDS011;5677;48.488;13.436;2023-04-09T00:04:26;4.00;;;3.33;;
11238;SDS011;5677;48.488;13.436;2023-04-09T00:06:53;3.40;;;3.10;;
11238;SDS011;5677;48.488;13.436;2023-04-09T00:09:19;3.30;;;3.00;;
11238;SDS011;5677;48.488;13.436;2023-04-09T00:11:47;3.50;;;3.20;;
11238;SDS011;5677;48.488;13.436;2023-04-09T00:14:14;3.73;;;3.30;;
11238;SDS011;5677;48.488;13.436;2023-04-09T00:16:41;3.93;;;3.17;;
11238;SDS011;5677;48.488;13.436;2023-04-09T00:19:08;3.37;;;2.90;;
11238;SDS011;5677;48.488;13.436;2023-04-09T00:21:35;3.30;;;3.00;;
11238;SDS011;5677;48.488;13.436;2023-04-09T00:24:02;3.40;;;3.10;;
11238;SDS011;5677;48.488;13.436;2023-04-09T00:26:29;3.63;;;3.23;;
11238;SDS011;5677;48.488;13.436;2023-04-09T00:28:57;3.73;;;3.33;;
11238;SDS011;5677;48.488;13.436;2023-04-09T00:31:24;3.50;;;3.20;;
11238;SDS011;5677;48.488;13.436;2023-04-09T00:33:51;3.40;;;3.10;;
11238;SDS011;5677;48.488;13.436;2023-04-09T00:36:18;3.40;;;3.10;;
11238;SDS011;5677;48.488;13.436;2023-04-09T00:38:44;3.77;;;3.33;;
11238;SDS011;5677;48.488;13.436;2023-04-09T00:41:12;3.33;;;3.03;;
11238;SDS011;5677;48.488;13.436;2023-04-09T00:43:39;3.87;;;3.37;;
11238;SDS011;5677;48.488;13.436;2023-04-09T00:46:07;3.67;;;3.30;;
11238;SDS011;5677;48.488;13.436;2023-04-09T00:48:34;3.30;;;3.00;;
11238;SDS011;5677;48.488;13.436;2023-04-09T00:51:01;3.77;;;2.80;;
11238;SDS011;5677;48.488;13.436;2023-04-09T00:53:27;3.33;;;3.07;;
11238;SDS011;5677;48.488;13.436;2023-04-09T00:55:54;3.67;;;3.37;;
11238;SDS011;5677;48.488;13.436;2023-04-09T00:58:21;3.13;;;2.83;;
11238;SDS011;5677;48.488;13.436;2023-04-09T01:00:48;3.90;;;3.50;;
11238;SDS011;5677;48.488;13.436;2023-04-09T01:03:16;3.70;;;3.40;;
11238;SDS011;5677;48.488;13.436;2023-04-09T01:05:46;3.37;;;3.07;;
11238;SDS011;5677;48.488;13.436;2023-04-09T01:08:22;3.47;;;3.17;;
11238;SDS011;5677;48.488;13.436;2023-04-09T01:10:58;3.20;;;2.90;;
11238;SDS011;5677;48.488;13.436;2023-04-09T01:13:34;3.33;;;3.03;;
11238;SDS011;5677;48.488;13.436;2023-04-09T01:16:07;3.67;;;3.30;;
11238;SDS011;5677;48.488;13.436;2023-04-09T01:18:39;4.30;;;3.57;;
11238;SDS011;5677;48.488;13.436;2023-04-09T01:21:10;3.40;;;2.97;;
11238;SDS011;5677;48.488;13.436;2023-04-09T01:23:44;4.00;;;3.20;;
11238;SDS011;5677;48.488;13.436;2023-04-09T01:26:15;3.77;;;3.10;;
11238;SDS011;5677;48.488;13.436;2023-04-09T01:28:48;3.30;;;3.00;;
11238;SDS011;5677;48.488;13.436;2023-04-09T01:31:19;3.37;;;3.03;;
11238;SDS011;5677;48.488;13.436;2023-04-09T01:33:51;3.30;;;3.00;;
11238;SDS011;5677;48.488;13.436;2023-04-09T01:36:18;3.40;;;3.13;;
11238;SDS011;5677;48.488;13.436;2023-04-09T01:38:46;3.30;;;3.00;;
11238;SDS011;5677;48.488;13.436;2023-04-09T01:41:16;3.67;;;3.20;;
11238;SDS011;5677;48.488;13.436;2023-04-09T01:43:45;3.50;;;3.20;;
11238;SDS011;5677;48.488;13.436;2023-04-09T01:46:15;3.40;;;3.10;;
11238;SDS011;5677;48.488;13.436;2023-04-09T01:48:43;3.40;;;3.10;;
11238;SDS011;5677;48.488;13.436;2023-04-09T01:51:11;3.60;;;3.30;;
11238;SDS011;5677;48.488;13.436;2023-04-09T01:53:38;3.40;;;3.10;;
11238;SDS011;5677;48.488;13.436;2023-04-09T01:56:06;3.23;;;2.93;;
11238;SDS011;5677;48.488;13.436;2023-04-09T01:58:33;3.50;;;3.20;;
11238;SDS011;5677;48.488;13.436;2023-04-09T02:01:02;3.20;;;2.90;;
11238;SDS011;5677;48.488;13.436;2023-04-09T02:03:33;3.07;;;2.87;;
11238;SDS011;5677;48.488;13.436;2023-04-09T02:06:05;4.27;;;3.70;;
11238;SDS011;5677;48.488;13.436;2023-04-09T02:08:36;3.33;;;3.03;;
11238;SDS011;5677;48.488;13.436;2023-04-09T02:11:03;3.13;;;2.83;;
11238;SDS011;5677;48.488;13.436;2023-04-09T02:13:31;3.40;;;3.10;;
11238;SDS011;5677;48.488;13.436;2023-04-09T02:15:59;4.13;;;3.37;;
11238;SDS011;5677;48.488;13.436;2023-04-09T02:18:28;4.13;;;3.33;;
11238;SDS011;5677;48.488;13.436;2023-04-09T02:20:57;2.90;;;2.70;;
11238;SDS011;5677;48.488;13.436;2023-04-09T02:23:24;4.03;;;3.63;;
11238;SDS011;5677;48.488;13.436;2023-04-09T02:25:52;3.40;;;3.07;;
11238;SDS011;5677;48.488;13.436;2023-04-09T02:28:19;3.40;;;3.10;;
11238;SDS011;5677;48.488;13.436;2023-04-09T02:30:46;3.53;;;3.23;;
11238;SDS011;5677;48.488;13.436;2023-04-09T02:33:14;3.30;;;3.03;;
11238;SDS011;5677;48.488;13.436;2023-04-09T02:35:40;4.00;;;3.33;;
11238;SDS011;5677;48.488;13.436;2023-04-09T02:38:07;3.20;;;2.87;;
11238;SDS011;5677;48.488;13.436;2023-04-09T02:40:37;3.60;;;3.30;;
11238;SDS011;5677;48.488;13.436;2023-04-09T02:43:05;3.63;;;2.97;;
11238;SDS011;5677;48.488;13.436;2023-04-09T02:45:32;3.43;;;3.13;;
11238;SDS011;5677;48.488;13.436;2023-04-09T02:47:58;3.50;;;3.20;;
11238;SDS011;5677;48.488;13.436;2023-04-09T02:50:27;3.37;;;3.07;;
11238;SDS011;5677;48.488;13.436;2023-04-09T02:52:53;3.10;;;2.80;;
11238;SDS011;5677;48.488;13.436;2023-04-09T02:55:20;3.40;;;3.10;;
11238;SDS011;5677;48.488;13.436;2023-04-09T02:57:47;7.10;;;3.27;;
11238;SDS011;5677;48.488;13.436;2023-04-09T03:00:14;3.40;;;3.10;;
11238;SDS011;5677;48.488;13.436;2023-04-09T03:02:40;3.37;;;3.00;;
11238;SDS011;5677;48.488;13.436;2023-04-09T03:05:07;3.37;;;3.07;;
11238;SDS011;5677;48.488;13.436;2023-04-09T03:07:36;3.63;;;2.70;;
11238;SDS011;5677;48.488;13.436;2023-04-09T03:10:02;4.03;;;3.63;;
11238;SDS011;5677;48.488;13.436;2023-04-09T03:12:30;3.53;;;2.90;;
11238;SDS011;5677;48.488;13.436;2023-04-09T03:14:56;3.47;;;3.17;;
11238;SDS011;5677;48.488;13.436;2023-04-09T03:17:23;3.50;;;3.07;;
11238;SDS011;5677;48.488;13.436;2023-04-09T03:19:51;3.40;;;3.10;;
11238;SDS011;5677;48.488;13.436;2023-04-09T03:22:18;3.77;;;3.30;;
11238;SDS011;5677;48.488;13.436;2023-04-09T03:24:46;3.63;;;3.33;;
11238;SDS011;5677;48.488;13.436;2023-04-09T03:27:12;3.43;;;3.10;;
11238;SDS011;5677;48.488;13.436;2023-04-09T03:29:39;3.57;;;3.17;;
11238;SDS011;5677;48.488;13.436;2023-04-09T03:32:06;3.83;;;3.43;;
11238;SDS011;5677;48.488;13.436;2023-04-09T03:34:33;3.67;;;3.30;;
11238;SDS011;5677;48.488;13.436;2023-04-09T03:37:00;3.60;;;3.30;;
11238;SDS011;5677;48.488;13.436;2023-04-09T03:39:26;3.50;;;3.20;;
11238;SDS011;5677;48.488;13.436;2023-04-09T03:41:56;3.67;;;3.03;;
11238;SDS011;5677;48.488;13.436;2023-04-09T03:44:23;4.37;;;3.23;;
11238;SDS011;5677;48.488;13.436;2023-04-09T03:46:50;3.30;;;3.00;;
11238;SDS011;5677;48.488;13.436;2023-04-09T03:49:17;3.13;;;2.80;;
11238;SDS011;5677;48.488;13.436;2023-04-09T03:51:44;3.43;;;3.13;;
11238;SDS011;5677;48.488;13.436;2023-04-09T03:54:10;3.73;;;3.17;;
11238;SDS011;5677;48.488;13.436;2023-04-09T03:56:37;3.20;;;2.90;;
11238;SDS011;5677;48.488;13.436;2023-04-09T03:59:05;3.40;;;3.10;;
11238;SDS011;5677;48.488;13.436;2023-04-09T04:01:32;4.03;;;2.70;;
11238;SDS011;5677;48.488;13.436;2023-04-09T04:03:59;3.27;;;2.90;;
11238;SDS011;5677;48.488;13.436;2023-04-09T04:06:26;3.47;;;3.17;;
11238;SDS011;5677;48.488;13.436;2023-04-09T04:08:53;3.50;;;3.20;;
11238;SDS011;5677;48.488;13.436;2023-04-09T04:11:19;3.70;;;3.30;;
11238;SDS011;5677;48.488;13.436;2023-04-09T04:13:46;3.53;;;3.20;;
11238;SDS011;5677;48.488;13.436;2023-04-09T04:16:14;3.43;;;3.13;;
11238;SDS011;5677;48.488;13.436;2023-04-09T04:18:41;3.80;;;3.40;;
11238;SDS011;5677;48.488;13.436;2023-04-09T04:21:11;3.43;;;3.13;;
11238;SDS011;5677;48.488;13.436;2023-04-09T04:23:38;3.63;;;3.10;;
11238;SDS011;5677;48.488;13.436;2023-04-09T04:26:06;3.77;;;3.20;;
11238;SDS011;5677;48.488;13.436;2023-04-09T04:28:33;3.20;;;2.83;;
11238;SDS011;5677;48.488;13.436;2023-04-09T04:31:00;3.47;;;3.17;;
11238;SDS011;5677;48.488;13.436;2023-04-09T04:33:28;3.60;;;3.00;;
11238;SDS011;5677;48.488;13.436;2023-04-09T04:36:02;3.80;;;3.40;;
11238;SDS011;5677;48.488;13.436;2023-04-09T04:38:30;3.50;;;3.20;;
11238;SDS011;5677;48.488;13.436;2023-04-09T04:40:57;3.73;;;3.33;;
11238;SDS011;5677;48.488;13.436;2023-04-09T04:43:23;4.20;;;3.47;;
11238;SDS011;5677;48.488;13.436;2023-04-09T04:45:50;3.57;;;3.23;;
11238;SDS011;5677;48.488;13.436;2023-04-09T04:48:17;3.40;;;3.10;;
11238;SDS011;5677;48.488;13.436;2023-04-09T04:50:45;3.83;;;3.20;;
11238;SDS011;5677;48.488;13.436;2023-04-09T04:53:12;3.30;;;2.90;;
11238;SDS011;5677;48.488;13.436;2023-04-09T04:55:38;3.30;;;3.00;;
11238;SDS011;5677;48.488;13.436;2023-04-09T04:58:05;3.37;;;3.07;;
11238;SDS011;5677;48.488;13.436;2023-04-09T05:00:32;3.00;;;2.77;;
11238;SDS011;5677;48.488;13.436;2023-04-09T05:02:58;3.63;;;3.33;;
11238;SDS011;5677;48.488;13.436;2023-04-09T05:05:25;3.47;;;2.90;;
11238;SDS011;5677;48.488;13.436;2023-04-09T05:07:53;3.17;;;2.90;;
11238;SDS011;5677;48.488;13.436;2023-04-09T05:10:20;3.37;;;3.00;;
11238;SDS011;5677;48.488;13.436;2023-04-09T05:12:47;3.37;;;3.07;;
11238;SDS011;5677;48.488;13.436;2023-04-09T05:15:13;3.63;;;3.30;;
11238;SDS011;5677;48.488;13.436;2023-04-09T05:17:41;3.40;;;3.10;;
11238;SDS011;5677;48.488;13.436;2023-04-09T05:20:08;3.63;;;3.27;;
11238;SDS011;5677;48.488;13.436;2023-04-09T05:22:36;3.63;;;2.80;;
11238;SDS011;5677;48.488;13.436;2023-04-09T05:25:04;3.23;;;2.93;;
11238;SDS011;5677;48.488;13.436;2023-04-09T05:27:32;3.63;;;3.10;;
11238;SDS011;5677;48.488;13.436;2023-04-09T05:29:59;3.50;;;3.20;;
11238;SDS011;5677;48.488;13.436;2023-04-09T05:32:26;2.87;;;2.67;;
11238;SDS011;5677;48.488;13.436;2023-04-09T05:34:53;3.27;;;2.93;;
11238;SDS011;5677;48.488;13.436;2023-04-09T05:37:19;3.43;;;2.93;;
11238;SDS011;5677;48.488;13.436;2023-04-09T05:39:46;3.23;;;2.93;;
11238;SDS011;5677;48.488;13.436;2023-04-09T05:42:14;3.33;;;3.03;;
11238;SDS011;5677;48.488;13.436;2023-04-09T05:44:41;3.43;;;2.83;;
11238;SDS011;5677;48.488;13.436;2023-04-09T05:47:08;3.23;;;2.93;;
11238;SDS011;5677;48.488;13.436;2023-04-09T05:49:34;3.70;;;3.30;;
11238;SDS011;5677;48.488;13.436;2023-04-09T05:52:01;3.40;;;3.03;;
11238;SDS011;5677;48.488;13.436;2023-04-09T05:54:28;5.47;;;3.10;;
11238;SDS011;5677;48.488;13.436;2023-04-09T05:56:55;6.87;;;3.80;;
11238;SDS011;5677;48.488;13.436;2023-04-09T05:59:24;4.20;;;3.50;;
11238;SDS011;5677;48.488;13.436;2023-04-09T06:01:51;3.43;;;3.13;;
11238;SDS011;5677;48.488;13.436;2023-04-09T06:04:17;3.00;;;2.80;;
11238;SDS011;5677;48.488;13.436;2023-04-09T06:06:44;3.93;;;3.60;;
11238;SDS011;5677;48.488;13.436;2023-04-09T06:09:12;3.37;;;3.03;;
11238;SDS011;5677;48.488;13.436;2023-04-09T06:11:38;4.50;;;3.40;;
11238;SDS011;5677;48.488;13.436;2023-04-09T06:14:07;3.53;;;3.23;;
11238;SDS011;5677;48.488;13.436;2023-04-09T06:16:37;4.57;;;3.07;;
11238;SDS011;5677;48.488;13.436;2023-04-09T06:19:04;4.23;;;3.13;;
11238;SDS011;5677;48.488;13.436;2023-04-09T06:21:31;3.20;;;2.90;;
11238;SDS011;5677;48.488;13.436;2023-04-09T06:23:58;3.10;;;2.80;;
11238;SDS011;5677;48.488;13.436;2023-04-09T06:26:25;3.13;;;2.80;;
11238;SDS011;5677;48.488;13.436;2023-04-09T06:28:51;3.40;;;3.10;;
11238;SDS011;5677;48.488;13.436;2023-04-09T06:31:19;4.60;;;2.80;;
11238;SDS011;5677;48.488;13.436;2023-04-09T06:33:47;3.20;;;2.90;;
11238;SDS011;5677;48.488;13.436;2023-04-09T06:36:14;3.40;;;3.10;;
11238;SDS011;5677;48.488;13.436;2023-04-09T06:38:41;3.40;;;3.10;;
11238;SDS011;5677;48.488;13.436;2023-04-09T06:41:08;5.23;;;3.00;;
11238;SDS011;5677;48.488;13.436;2023-04-09T06:43:36;4.67;;;3.47;;
11238;SDS011;5677;48.488;13.436;2023-04-09T06:46:03;4.93;;;3.20;;
11238;SDS011;5677;48.488;13.436;2023-04-09T06:48:30;5.13;;;3.47;;
11238;SDS011;5677;48.488;13.436;2023-04-09T06:50:58;5.60;;;3.10;;
11238;SDS011;5677;48.488;13.436;2023-04-09T06:53:25;5.27;;;4.57;;
11238;SDS011;5677;48.488;13.436;2023-04-09T06:55:52;4.03;;;3.63;;
11238;SDS011;5677;48.488;13.436;2023-04-09T06:58:19;6.93;;;4.07;;
11238;SDS011;5677;48.488;13.436;2023-04-09T07:00:47;5.27;;;4.03;;
11238;SDS011;5677;48.488;13.436;2023-04-09T07:03:14;6.30;;;4.40;;
11238;SDS011;5677;48.488;13.436;2023-04-09T07:05:41;6.10;;;4.57;;
11238;SDS011;5677;48.488;13.436;2023-04-09T07:08:09;6.77;;;4.57;;
11238;SDS011;5677;48.488;13.436;2023-04-09T07:10:36;5.67;;;4.30;;
11238;SDS011;5677;48.488;13.436;2023-04-09T07:13:03;7.20;;;5.07;;
11238;SDS011;5677;48.488;13.436;2023-04-09T07:15:30;8.80;;;4.97;;
11238;SDS011;5677;48.488;13.436;2023-04-09T07:17:56;7.00;;;4.67;;
11238;SDS011;5677;48.488;13.436;2023-04-09T07:20:23;5.77;;;4.53;;
11238;SDS011;5677;48.488;13.436;2023-04-09T07:22:50;6.10;;;4.90;;
11238;SDS011;5677;48.488;13.436;2023-04-09T07:25:18;9.33;;;4.87;;
11238;SDS011;5677;48.488;13.436;2023-04-09T07:27:45;8.43;;;5.10;;
11238;SDS011;5677;48.488;13.436;2023-04-09T07:30:12;6.33;;;5.17;;
11238;SDS011;5677;48.488;13.436;2023-04-09T07:32:39;7.27;;;4.70;;
11238;SDS011;5677;48.488;13.436;2023-04-09T07:35:06;7.73;;;5.27;;
11238;SDS011;5677;48.488;13.436;2023-04-09T07:37:35;10.43;;;5.07;;
11238;SDS011;5677;48.488;13.436;2023-04-09T07:40:02;7.20;;;5.00;;
11238;SDS011;5677;48.488;13.436;2023-04-09T07:42:32;7.10;;;5.17;;
11238;SDS011;5677;48.488;13.436;2023-04-09T07:44:59;8.27;;;5.50;;
11238;SDS011;5677;48.488;13.436;2023-04-09T07:47:27;9.23;;;4.97;;
11238;SDS011;5677;48.488;13.436;2023-04-09T07:49:54;6.00;;;5.23;;
11238;SDS011;5677;48.488;13.436;2023-04-09T07:52:20;7.97;;;5.47;;
11238;SDS011;5677;48.488;13.436;2023-04-09T07:54:47;8.63;;;5.10;;
11238;SDS011;5677;48.488;13.436;2023-04-09T07:57:14;10.53;;;5.27;;
11238;SDS011;5677;48.488;13.436;2023-04-09T07:59:42;7.57;;;5.33;;
11238;SDS011;5677;48.488;13.436;2023-04-09T08:02:10;6.10;;;5.00;;
11238;SDS011;5677;48.488;13.436;2023-04-09T08:04:37;5.73;;;5.10;;
11238;SDS011;5677;48.488;13.436;2023-04-09T08:07:04;7.60;;;5.63;;
11238;SDS011;5677;48.488;13.436;2023-04-09T08:09:31;9.83;;;5.30;;
11238;SDS011;5677;48.488;13.436;2023-04-09T08:11:58;8.17;;;5.60;;
11238;SDS011;5677;48.488;13.436;2023-04-09T08:14:25;9.40;;;5.80;;
11238;SDS011;5677;48.488;13.436;2023-04-09T08:16:53;6.30;;;4.70;;
11238;SDS011;5677;48.488;13.436;2023-04-09T08:19:20;6.43;;;4.97;;
11238;SDS011;5677;48.488;13.436;2023-04-09T08:21:47;6.33;;;4.80;;
11238;SDS011;5677;48.488;13.436;2023-04-09T08:24:14;5.70;;;4.80;;
11238;SDS011;5677;48.488;13.436;2023-04-09T08:26:41;7.43;;;5.30;;
11238;SDS011;5677;48.488;13.436;2023-04-09T08:29:08;6.50;;;5.03;;
11238;SDS011;5677;48.488;13.436;2023-04-09T08:31:37;8.00;;;5.43;;
11238;SDS011;5677;48.488;13.436;2023-04-09T08:34:05;5.90;;;4.77;;
11238;SDS011;5677;48.488;13.436;2023-04-09T08:36:32;13.53;;;5.93;;
11238;SDS011;5677;48.488;13.436;2023-04-09T08:39:01;7.90;;;5.10;;
11238;SDS011;5677;48.488;13.436;2023-04-09T08:41:28;6.43;;;5.47;;
11238;SDS011;5677;48.488;13.436;2023-04-09T08:43:56;6.27;;;5.20;;
11238;SDS011;5677;48.488;13.436;2023-04-09T08:46:23;9.17;;;6.03;;
11238;SDS011;5677;48.488;13.436;2023-04-09T08:48:51;8.27;;;5.13;;
11238;SDS011;5677;48.488;13.436;2023-04-09T08:51:19;6.27;;;5.33;;
11238;SDS011;5677;48.488;13.436;2023-04-09T08:53:47;5.90;;;4.87;;
11238;SDS011;5677;48.488;13.436;2023-04-09T08:56:17;8.23;;;6.10;;
11238;SDS011;5677;48.488;13.436;2023-04-09T08:58:45;7.80;;;5.63;;
11238;SDS011;5677;48.488;13.436;2023-04-09T09:01:19;11.00;;;5.63;;
11238;SDS011;5677;48.488;13.436;2023-04-09T09:03:53;6.90;;;5.57;;
11238;SDS011;5677;48.488;13.436;2023-04-09T09:06:24;7.43;;;5.77;;
11238;SDS011;5677;48.488;13.436;2023-04-09T09:08:58;10.77;;;5.57;;
11238;SDS011;5677;48.488;13.436;2023-04-09T09:11:27;8.57;;;5.47;;
11238;SDS011;5677;48.488;13.436;2023-04-09T09:13:58;9.73;;;5.20;;
11238;SDS011;5677;48.488;13.436;2023-04-09T09:16:26;7.27;;;5.10;;
11238;SDS011;5677;48.488;13.436;2023-04-09T09:18:53;8.83;;;4.90;;
11238;SDS011;5677;48.488;13.436;2023-04-09T09:21:20;15.30;;;6.60;;
11238;SDS011;5677;48.488;13.436;2023-04-09T09:23:49;9.83;;;6.03;;
11238;SDS011;5677;48.488;13.436;2023-04-09T09:26:16;15.27;;;7.07;;
11238;SDS011;5677;48.488;13.436;2023-04-09T09:28:44;21.07;;;9.47;;
11238;SDS011;5677;48.488;13.436;2023-04-09T09:31:12;29.60;;;8.30;;
11238;SDS011;5677;48.488;13.436;2023-04-09T09:33:40;15.67;;;8.37;;
11238;SDS011;5677;48.488;13.436;2023-04-09T09:36:08;23.60;;;7.90;;
11238;SDS011;5677;48.488;13.436;2023-04-09T09:38:51;21.33;;;8.33;;
11238;SDS011;5677;48.488;13.436;2023-04-09T09:41:19;21.07;;;8.17;;
11238;SDS011;5677;48.488;13.436;2023-04-09T09:43:46;23.20;;;7.93;;
11238;SDS011;5677;48.488;13.436;2023-04-09T09:46:13;19.27;;;7.60;;
11238;SDS011;5677;48.488;13.436;2023-04-09T09:48:41;20.10;;;7.40;;
11238;SDS011;5677;48.488;13.436;2023-04-09T09:51:11;14.07;;;7.33;;
11238;SDS011;5677;48.488;13.436;2023-04-09T09:53:39;18.20;;;7.20;;
11238;SDS011;5677;48.488;13.436;2023-04-09T09:56:11;19.47;;;7.13;;
11238;SDS011;5677;48.488;13.436;2023-04-09T09:58:40;13.00;;;7.07;;
11238;SDS011;5677;48.488;13.436;2023-04-09T10:01:11;15.07;;;7.40;;
11238;SDS011;5677;48.488;13.436;2023-04-09T10:03:39;18.47;;;6.37;;
11238;SDS011;5677;48.488;13.436;2023-04-09T10:06:08;18.83;;;7.10;;
11238;SDS011;5677;48.488;13.436;2023-04-09T10:08:37;13.23;;;6.40;;
11238;SDS011;5677;48.488;13.436;2023-04-09T10:11:07;16.30;;;7.00;;
11238;SDS011;5677;48.488;13.436;2023-04-09T10:13:36;14.33;;;5.93;;
11238;SDS011;5677;48.488;13.436;2023-04-09T10:16:05;13.93;;;6.00;;
11238;SDS011;5677;48.488;13.436;2023-04-09T10:18:33;10.27;;;6.40;;
11238;SDS011;5677;48.488;13.436;2023-04-09T10:21:02;10.87;;;6.20;;
11238;SDS011;5677;48.488;13.436;2023-04-09T10:23:37;12.03;;;6.20;;
11238;SDS011;5677;48.488;13.436;2023-04-09T10:26:05;13.47;;;6.93;;
11238;SDS011;5677;48.488;13.436;2023-04-09T10:28:32;12.50;;;6.30;;
11238;SDS011;5677;48.488;13.436;2023-04-09T10:31:00;8.30;;;5.97;;
11238;SDS011;5677;48.488;13.436;2023-04-09T10:33:29;12.20;;;5.50;;
11238;SDS011;5677;48.488;13.436;2023-04-09T10:35:58;12.33;;;5.63;;
11238;SDS011;5677;48.488;13.436;2023-04-09T10:38:32;12.43;;;6.37;;
11238;SDS011;5677;48.488;13.436;2023-04-09T10:41:09;9.80;;;5.90;;
11238;SDS011;5677;48.488;13.436;2023-04-09T10:43:40;12.80;;;5.37;;
11238;SDS011;5677;48.488;13.436;2023-04-09T10:49:07;11.77;;;5.57;;
11238;SDS011;5677;48.488;13.436;2023-04-09T10:51:35;8.77;;;5.13;;
11238;SDS011;5677;48.488;13.436;2023-04-09T10:54:03;9.53;;;5.07;;
11238;SDS011;5677;48.488;13.436;2023-04-09T10:56:30;9.10;;;5.33;;
11238;SDS011;5677;48.488;13.436;2023-04-09T10:58:58;9.97;;;5.23;;
11238;SDS011;5677;48.488;13.436;2023-04-09T11:01:24;11.90;;;5.37;;
11238;SDS011;5677;48.488;13.436;2023-04-09T11:04:06;9.97;;;5.60;;
11238;SDS011;5677;48.488;13.436;2023-04-09T11:06:34;10.13;;;5.17;;
11238;SDS011;5677;48.488;13.436;2023-04-09T11:09:02;9.80;;;5.43;;
11238;SDS011;5677;48.488;13.436;2023-04-09T11:11:29;8.40;;;5.00;;
11238;SDS011;5677;48.488;13.436;2023-04-09T11:13:57;9.07;;;5.30;;
11238;SDS011;5677;48.488;13.436;2023-04-09T11:16:25;6.87;;;4.83;;
11238;SDS011;5677;48.488;13.436;2023-04-09T11:18:54;6.43;;;4.47;;
11238;SDS011;5677;48.488;13.436;2023-04-09T11:21:22;7.97;;;4.60;;
11238;SDS011;5677;48.488;13.436;2023-04-09T11:23:52;9.07;;;5.60;;
11238;SDS011;5677;48.488;13.436;2023-04-09T11:26:22;9.53;;;5.07;;
11238;SDS011;5677;48.488;13.436;2023-04-09T11:28:49;7.90;;;4.97;;
11238;SDS011;5677;48.488;13.436;2023-04-09T11:31:25;7.97;;;4.50;;
11238;SDS011;5677;48.488;13.436;2023-04-09T11:33:52;7.90;;;4.80;;
11238;SDS011;5677;48.488;13.436;2023-04-09T11:36:20;7.47;;;4.60;;
11238;SDS011;5677;48.488;13.436;2023-04-09T11:38:48;10.57;;;4.73;;
11238;SDS011;5677;48.488;13.436;2023-04-09T11:41:15;8.37;;;4.50;;
11238;SDS011;5677;48.488;13.436;2023-04-09T11:43:42;7.23;;;4.50;;
11238;SDS011;5677;48.488;13.436;2023-04-09T11:46:09;7.00;;;4.40;;
11238;SDS011;5677;48.488;13.436;2023-04-09T11:48:36;10.47;;;4.50;;
11238;SDS011;5677;48.488;13.436;2023-04-09T11:51:02;7.27;;;4.57;;
11238;SDS011;5677;48.488;13.436;2023-04-09T11:53:30;7.00;;;4.70;;
11238;SDS011;5677;48.488;13.436;2023-04-09T11:55:58;7.83;;;4.67;;
11238;SDS011;5677;48.488;13.436;2023-04-09T11:58:26;5.93;;;4.07;;
11238;SDS011;5677;48.488;13.436;2023-04-09T12:00:52;7.67;;;4.60;;
11238;SDS011;5677;48.488;13.436;2023-04-09T12:03:26;5.63;;;4.30;;
11238;SDS011;5677;48.488;13.436;2023-04-09T12:05:54;8.03;;;4.20;;
11238;SDS011;5677;48.488;13.436;2023-04-09T12:08:21;7.30;;;4.27;;
11238;SDS011;5677;48.488;13.436;2023-04-09T12:10:48;8.47;;;4.70;;
11238;SDS011;5677;48.488;13.436;2023-04-09T12:13:18;7.80;;;4.40;;
11238;SDS011;5677;48.488;13.436;2023-04-09T12:15:47;7.83;;;4.10;;
11238;SDS011;5677;48.488;13.436;2023-04-09T12:18:14;6.80;;;4.40;;
11238;SDS011;5677;48.488;13.436;2023-04-09T12:20:41;9.80;;;4.90;;
11238;SDS011;5677;48.488;13.436;2023-04-09T12:23:10;5.23;;;3.77;;
11238;SDS011;5677;48.488;13.436;2023-04-09T12:25:38;5.23;;;3.57;;
11238;SDS011;5677;48.488;13.436;2023-04-09T12:28:06;7.37;;;4.07;;
11238;SDS011;5677;48.488;13.436;2023-04-09T12:30:35;4.67;;;3.53;;
11238;SDS011;5677;48.488;13.436;2023-04-09T12:33:02;6.00;;;3.63;;
11238;SDS011;5677;48.488;13.436;2023-04-09T12:35:29;4.90;;;3.70;;
11238;SDS011;5677;48.488;13.436;2023-04-09T12:37:56;7.27;;;3.57;;
11238;SDS011;5677;48.488;13.436;2023-04-09T12:40:24;8.30;;;4.07;;
11238;SDS011;5677;48.488;13.436;2023-04-09T12:42:51;4.50;;;4.10;;
11238;SDS011;5677;48.488;13.436;2023-04-09T12:45:19;4.30;;;3.90;;
11238;SDS011;5677;48.488;13.436;2023-04-09T12:47:47;10.87;;;4.37;;
11238;SDS011;5677;48.488;13.436;2023-04-09T12:50:15;7.73;;;4.33;;
11238;SDS011;5677;48.488;13.436;2023-04-09T12:52:42;8.60;;;4.40;;
11238;SDS011;5677;48.488;13.436;2023-04-09T12:55:09;8.03;;;4.10;;
11238;SDS011;5677;48.488;13.436;2023-04-09T12:57:36;7.40;;;4.20;;
11238;SDS011;5677;48.488;13.436;2023-04-09T13:00:05;5.43;;;3.83;;
11238;SDS011;5677;48.488;13.436;2023-04-09T13:02:33;5.43;;;3.43;;
11238;SDS011;5677;48.488;13.436;2023-04-09T13:05:01;6.07;;;3.57;;
11238;SDS011;5677;48.488;13.436;2023-04-09T13:07:28;6.17;;;3.83;;
11238;SDS011;5677;48.488;13.436;2023-04-09T13:09:55;5.10;;;3.70;;
11238;SDS011;5677;48.488;13.436;2023-04-09T13:12:22;5.40;;;3.87;;
11238;SDS011;5677;48.488;13.436;2023-04-09T13:14:50;7.93;;;3.90;;
11238;SDS011;5677;48.488;13.436;2023-04-09T13:17:18;8.90;;;3.90;;
11238;SDS011;5677;48.488;13.436;2023-04-09T13:19:44;8.83;;;3.67;;
11238;SDS011;5677;48.488;13.436;2023-04-09T13:22:13;5.00;;;3.60;;
11238;SDS011;5677;48.488;13.436;2023-04-09T13:24:40;4.70;;;3.53;;
11238;SDS011;5677;48.488;13.436;2023-04-09T13:27:07;6.37;;;3.77;;
11238;SDS011;5677;48.488;13.436;2023-04-09T13:29:34;3.77;;;3.40;;
11238;SDS011;5677;48.488;13.436;2023-04-09T13:32:01;4.93;;;3.43;;
11238;SDS011;5677;48.488;13.436;2023-04-09T13:34:31;6.30;;;3.50;;
11238;SDS011;5677;48.488;13.436;2023-04-09T13:36:59;4.10;;;3.70;;
11238;SDS011;5677;48.488;13.436;2023-04-09T13:39:27;6.27;;;3.93;;
11238;SDS011;5677;48.488;13.436;2023-04-09T13:41:54;6.40;;;3.97;;
11238;SDS011;5677;48.488;13.436;2023-04-09T13:44:21;6.73;;;4.30;;
11238;SDS011;5677;48.488;13.436;2023-04-09T13:46:48;5.43;;;3.40;;
11238;SDS011;5677;48.488;13.436;2023-04-09T13:49:14;8.40;;;4.47;;
11238;SDS011;5677;48.488;13.436;2023-04-09T13:51:41;5.33;;;3.90;;
11238;SDS011;5677;48.488;13.436;2023-04-09T13:54:08;6.60;;;3.80;;
11238;SDS011;5677;48.488;13.436;2023-04-09T13:56:37;7.03;;;3.97;;
11238;SDS011;5677;48.488;13.436;2023-04-09T13:59:04;5.70;;;3.60;;
11238;SDS011;5677;48.488;13.436;2023-04-09T14:01:31;8.27;;;3.77;;
11238;SDS011;5677;48.488;13.436;2023-04-09T14:03:58;7.30;;;3.93;;
11238;SDS011;5677;48.488;13.436;2023-04-09T14:06:26;6.07;;;3.97;;
11238;SDS011;5677;48.488;13.436;2023-04-09T14:08:54;4.57;;;3.87;;
11238;SDS011;5677;48.488;13.436;2023-04-09T14:11:20;5.40;;;3.60;;
11238;SDS011;5677;48.488;13.436;2023-04-09T14:13:49;6.37;;;3.63;;
11238;SDS011;5677;48.488;13.436;2023-04-09T14:16:15;6.57;;;3.67;;
11238;SDS011;5677;48.488;13.436;2023-04-09T14:18:42;5.17;;;3.43;;
11238;SDS011;5677;48.488;13.436;2023-04-09T14:21:09;7.23;;;3.80;;
11238;SDS011;5677;48.488;13.436;2023-04-09T14:23:35;5.13;;;4.10;;
11238;SDS011;5677;48.488;13.436;2023-04-09T14:26:04;5.13;;;3.47;;
11238;SDS011;5677;48.488;13.436;2023-04-09T14:28:30;5.10;;;3.70;;
11238;SDS011;5677;48.488;13.436;2023-04-09T14:30:59;3.87;;;3.47;;
11238;SDS011;5677;48.488;13.436;2023-04-09T14:33:26;8.10;;;4.10;;
11238;SDS011;5677;48.488;13.436;2023-04-09T14:35:52;5.03;;;3.50;;
11238;SDS011;5677;48.488;13.436;2023-04-09T14:38:19;4.43;;;3.50;;
11238;SDS011;5677;48.488;13.436;2023-04-09T14:40:47;5.37;;;3.87;;
11238;SDS011;5677;48.488;13.436;2023-04-09T14:43:14;5.50;;;3.70;;
11238;SDS011;5677;48.488;13.436;2023-04-09T14:45:41;6.83;;;3.70;;
11238;SDS011;5677;48.488;13.436;2023-04-09T14:48:09;4.93;;;4.10;;
11238;SDS011;5677;48.488;13.436;2023-04-09T14:50:36;4.83;;;4.03;;
11238;SDS011;5677;48.488;13.436;2023-04-09T14:53:03;5.37;;;3.50;;